sensor_id;sensor_type;location;lat;lon;timestamp;P1;durP1;ratioP1;P2;durP2;ratioP2
24163;SDS011;12319;49.204;8.116;2023-03-20T00:00:29;2.80;;;1.50;;
24163;SDS011;12319;49.204;8.116;2023-03-20T00:02:58;2.83;;;1.40;;
24163;SDS011;12319;49.204;8.116;2023-03-20T00:05:24;2.42;;;1.38;;
24163;SDS011;12319;49.204;8.116;2023-03-20T00:07:55;2.20;;;1.35;;
24163;SDS011;12319;49.204;8.116;2023-03-20T00:10:23;2.20;;;1.30;;
24163;SDS011;12319;49.204;8.116;2023-03-20T00:12:52;2.30;;;1.30;;
24163;SDS011;12319;49.204;8.116;2023-03-20T00:15:25;2.40;;;1.40;;
24163;SDS011;12319;49.204;8.116;2023-03-20T00:17:54;2.70;;;1.47;;
24163;SDS011;12319;49.204;8.116;2023-03-20T00:20:20;2.63;;;1.42;;
24163;SDS011;12319;49.204;8.116;2023-03-20T00:22:46;3.67;;;1.70;;
24163;SDS011;12319;49.204;8.116;2023-03-20T00:25:13;2.47;;;1.50;;
24163;SDS011;12319;49.204;8.116;2023-03-20T00:27:41;2.47;;;1.45;;
24163;SDS011;12319;49.204;8.116;2023-03-20T00:32:53;2.67;;;1.48;;
24163;SDS011;12319;49.204;8.116;2023-03-20T00:35:28;2.47;;;1.40;;
24163;SDS011;12319;49.204;8.116;2023-03-20T00:37:55;2.42;;;1.33;;
24163;SDS011;12319;49.204;8.116;2023-03-20T00:40:28;2.97;;;1.40;;
24163;SDS011;12319;49.204;8.116;2023-03-20T00:42:59;2.40;;;1.40;;
24163;SDS011;12319;49.204;8.116;2023-03-20T00:45:26;3.08;;;1.50;;
24163;SDS011;12319;49.204;8.116;2023-03-20T00:47:53;2.65;;;1.33;;
24163;SDS011;12319;49.204;8.116;2023-03-20T00:50:22;2.60;;;1.40;;
24163;SDS011;12319;49.204;8.116;2023-03-20T00:52:50;2.42;;;1.40;;
24163;SDS011;12319;49.204;8.116;2023-03-20T00:55:16;2.97;;;1.50;;
24163;SDS011;12319;49.204;8.116;2023-03-20T00:57:48;2.25;;;1.40;;
24163;SDS011;12319;49.204;8.116;2023-03-20T01:03:00;2.55;;;1.27;;
24163;SDS011;12319;49.204;8.116;2023-03-20T01:05:27;2.13;;;1.40;;
24163;SDS011;12319;49.204;8.116;2023-03-20T01:07:53;2.40;;;1.47;;
24163;SDS011;12319;49.204;8.116;2023-03-20T01:10:19;2.67;;;1.50;;
24163;SDS011;12319;49.204;8.116;2023-03-20T01:12:47;3.33;;;1.67;;
24163;SDS011;12319;49.204;8.116;2023-03-20T01:17:52;2.70;;;1.50;;
24163;SDS011;12319;49.204;8.116;2023-03-20T01:20:22;2.63;;;1.50;;
24163;SDS011;12319;49.204;8.116;2023-03-20T01:22:50;3.40;;;1.80;;
24163;SDS011;12319;49.204;8.116;2023-03-20T01:25:15;3.40;;;1.60;;
24163;SDS011;12319;49.204;8.116;2023-03-20T01:27:51;3.22;;;1.60;;
24163;SDS011;12319;49.204;8.116;2023-03-20T01:32:43;3.35;;;1.70;;
24163;SDS011;12319;49.204;8.116;2023-03-20T01:35:11;3.03;;;1.70;;
24163;SDS011;12319;49.204;8.116;2023-03-20T01:37:38;3.80;;;1.65;;
24163;SDS011;12319;49.204;8.116;2023-03-20T01:42:56;3.47;;;1.73;;
24163;SDS011;12319;49.204;8.116;2023-03-20T01:45:23;3.70;;;1.80;;
24163;SDS011;12319;49.204;8.116;2023-03-20T01:47:54;3.90;;;1.90;;
24163;SDS011;12319;49.204;8.116;2023-03-20T01:52:46;4.07;;;2.00;;
24163;SDS011;12319;49.204;8.116;2023-03-20T01:55:15;3.80;;;1.73;;
24163;SDS011;12319;49.204;8.116;2023-03-20T01:57:41;4.32;;;1.83;;
24163;SDS011;12319;49.204;8.116;2023-03-20T02:00:10;3.60;;;1.87;;
24163;SDS011;12319;49.204;8.116;2023-03-20T02:02:39;4.07;;;1.90;;
24163;SDS011;12319;49.204;8.116;2023-03-20T02:05:08;4.13;;;1.75;;
24163;SDS011;12319;49.204;8.116;2023-03-20T02:07:35;3.17;;;1.60;;
24163;SDS011;12319;49.204;8.116;2023-03-20T02:10:09;3.75;;;1.98;;
24163;SDS011;12319;49.204;8.116;2023-03-20T02:12:38;3.80;;;1.85;;
24163;SDS011;12319;49.204;8.116;2023-03-20T02:15:04;3.53;;;1.67;;
24163;SDS011;12319;49.204;8.116;2023-03-20T02:17:31;3.33;;;1.50;;
24163;SDS011;12319;49.204;8.116;2023-03-20T02:20:11;2.90;;;1.50;;
24163;SDS011;12319;49.204;8.116;2023-03-20T02:25:41;4.30;;;2.08;;
24163;SDS011;12319;49.204;8.116;2023-03-20T02:34:15;4.13;;;2.03;;
24163;SDS011;12319;49.204;8.116;2023-03-20T02:40:01;3.95;;;1.83;;
24163;SDS011;12319;49.204;8.116;2023-03-20T02:45:13;4.50;;;2.17;;
24163;SDS011;12319;49.204;8.116;2023-03-20T02:47:51;4.47;;;2.10;;
24163;SDS011;12319;49.204;8.116;2023-03-20T02:50:56;4.32;;;1.83;;
24163;SDS011;12319;49.204;8.116;2023-03-20T02:56:29;3.80;;;1.90;;
24163;SDS011;12319;49.204;8.116;2023-03-20T02:59:30;4.68;;;2.10;;
24163;SDS011;12319;49.204;8.116;2023-03-20T03:02:19;3.80;;;1.70;;
24163;SDS011;12319;49.204;8.116;2023-03-20T03:04:52;3.92;;;1.95;;
24163;SDS011;12319;49.204;8.116;2023-03-20T03:07:23;3.45;;;1.65;;
24163;SDS011;12319;49.204;8.116;2023-03-20T03:09:55;3.88;;;1.90;;
24163;SDS011;12319;49.204;8.116;2023-03-20T03:12:51;3.35;;;1.73;;
24163;SDS011;12319;49.204;8.116;2023-03-20T03:15:24;4.93;;;1.97;;
24163;SDS011;12319;49.204;8.116;2023-03-20T03:17:56;4.32;;;1.98;;
24163;SDS011;12319;49.204;8.116;2023-03-20T03:20:30;4.03;;;2.00;;
24163;SDS011;12319;49.204;8.116;2023-03-20T03:22:57;4.85;;;2.15;;
24163;SDS011;12319;49.204;8.116;2023-03-20T03:25:25;4.47;;;2.05;;
24163;SDS011;12319;49.204;8.116;2023-03-20T03:28:07;4.90;;;2.20;;
24163;SDS011;12319;49.204;8.116;2023-03-20T03:30:46;5.10;;;2.28;;
24163;SDS011;12319;49.204;8.116;2023-03-20T03:33:14;4.30;;;2.08;;
24163;SDS011;12319;49.204;8.116;2023-03-20T03:35:56;5.00;;;2.55;;
24163;SDS011;12319;49.204;8.116;2023-03-20T03:38:38;4.43;;;2.17;;
24163;SDS011;12319;49.204;8.116;2023-03-20T03:49:26;5.00;;;2.15;;
24163;SDS011;12319;49.204;8.116;2023-03-20T03:51:56;4.47;;;2.03;;
24163;SDS011;12319;49.204;8.116;2023-03-20T03:54:27;4.63;;;2.10;;
24163;SDS011;12319;49.204;8.116;2023-03-20T03:57:06;4.50;;;1.90;;
24163;SDS011;12319;49.204;8.116;2023-03-20T03:59:35;3.92;;;1.83;;
24163;SDS011;12319;49.204;8.116;2023-03-20T04:02:04;4.93;;;1.98;;
24163;SDS011;12319;49.204;8.116;2023-03-20T04:04:32;4.18;;;2.00;;
24163;SDS011;12319;49.204;8.116;2023-03-20T04:06:59;4.70;;;2.27;;
24163;SDS011;12319;49.204;8.116;2023-03-20T04:09:25;3.97;;;1.90;;
24163;SDS011;12319;49.204;8.116;2023-03-20T04:11:51;4.10;;;2.00;;
24163;SDS011;12319;49.204;8.116;2023-03-20T04:14:17;4.25;;;2.10;;
24163;SDS011;12319;49.204;8.116;2023-03-20T04:16:43;5.32;;;2.13;;
24163;SDS011;12319;49.204;8.116;2023-03-20T04:19:09;4.47;;;2.00;;
24163;SDS011;12319;49.204;8.116;2023-03-20T04:21:34;4.60;;;2.23;;
24163;SDS011;12319;49.204;8.116;2023-03-20T04:24:00;5.73;;;2.37;;
24163;SDS011;12319;49.204;8.116;2023-03-20T04:26:26;3.78;;;1.90;;
24163;SDS011;12319;49.204;8.116;2023-03-20T04:28:51;4.17;;;2.03;;
24163;SDS011;12319;49.204;8.116;2023-03-20T04:31:17;3.97;;;1.83;;
24163;SDS011;12319;49.204;8.116;2023-03-20T04:33:42;3.85;;;1.90;;
24163;SDS011;12319;49.204;8.116;2023-03-20T04:36:08;3.97;;;2.07;;
24163;SDS011;12319;49.204;8.116;2023-03-20T04:38:34;3.10;;;1.58;;
24163;SDS011;12319;49.204;8.116;2023-03-20T04:41:00;3.67;;;1.60;;
24163;SDS011;12319;49.204;8.116;2023-03-20T04:43:25;4.70;;;1.85;;
24163;SDS011;12319;49.204;8.116;2023-03-20T04:45:51;3.93;;;2.00;;
24163;SDS011;12319;49.204;8.116;2023-03-20T04:48:16;5.90;;;2.25;;
24163;SDS011;12319;49.204;8.116;2023-03-20T04:50:42;5.50;;;2.40;;
24163;SDS011;12319;49.204;8.116;2023-03-20T04:53:12;3.97;;;1.80;;
24163;SDS011;12319;49.204;8.116;2023-03-20T04:55:38;4.32;;;1.88;;
24163;SDS011;12319;49.204;8.116;2023-03-20T04:58:04;5.03;;;2.20;;
24163;SDS011;12319;49.204;8.116;2023-03-20T05:00:29;4.30;;;2.03;;
24163;SDS011;12319;49.204;8.116;2023-03-20T05:02:55;3.97;;;2.00;;
24163;SDS011;12319;49.204;8.116;2023-03-20T05:05:21;4.30;;;2.00;;
24163;SDS011;12319;49.204;8.116;2023-03-20T05:07:47;5.07;;;1.98;;
24163;SDS011;12319;49.204;8.116;2023-03-20T05:10:13;3.92;;;1.80;;
24163;SDS011;12319;49.204;8.116;2023-03-20T05:12:39;3.42;;;1.83;;
24163;SDS011;12319;49.204;8.116;2023-03-20T05:15:05;3.65;;;1.88;;
24163;SDS011;12319;49.204;8.116;2023-03-20T05:17:31;3.72;;;1.77;;
24163;SDS011;12319;49.204;8.116;2023-03-20T05:19:56;4.50;;;2.07;;
24163;SDS011;12319;49.204;8.116;2023-03-20T05:22:22;3.63;;;1.80;;
24163;SDS011;12319;49.204;8.116;2023-03-20T05:24:47;3.90;;;1.90;;
24163;SDS011;12319;49.204;8.116;2023-03-20T05:27:13;4.40;;;1.93;;
24163;SDS011;12319;49.204;8.116;2023-03-20T05:29:38;3.93;;;1.90;;
24163;SDS011;12319;49.204;8.116;2023-03-20T05:32:04;4.13;;;2.05;;
24163;SDS011;12319;49.204;8.116;2023-03-20T05:34:30;4.57;;;2.20;;
24163;SDS011;12319;49.204;8.116;2023-03-20T05:36:55;4.60;;;1.83;;
24163;SDS011;12319;49.204;8.116;2023-03-20T05:39:21;4.20;;;1.92;;
24163;SDS011;12319;49.204;8.116;2023-03-20T05:41:46;3.60;;;1.97;;
24163;SDS011;12319;49.204;8.116;2023-03-20T05:44:12;4.53;;;2.22;;
24163;SDS011;12319;49.204;8.116;2023-03-20T05:46:38;5.10;;;2.40;;
24163;SDS011;12319;49.204;8.116;2023-03-20T05:49:03;5.00;;;2.40;;
24163;SDS011;12319;49.204;8.116;2023-03-20T05:51:29;5.20;;;2.28;;
24163;SDS011;12319;49.204;8.116;2023-03-20T05:53:55;4.70;;;2.20;;
24163;SDS011;12319;49.204;8.116;2023-03-20T05:56:20;5.35;;;2.13;;
24163;SDS011;12319;49.204;8.116;2023-03-20T05:58:46;5.00;;;2.20;;
24163;SDS011;12319;49.204;8.116;2023-03-20T06:01:11;5.45;;;2.35;;
24163;SDS011;12319;49.204;8.116;2023-03-20T06:03:40;5.28;;;2.42;;
24163;SDS011;12319;49.204;8.116;2023-03-20T06:06:06;5.20;;;2.40;;
24163;SDS011;12319;49.204;8.116;2023-03-20T06:08:31;5.00;;;2.20;;
24163;SDS011;12319;49.204;8.116;2023-03-20T06:10:57;4.25;;;2.08;;
24163;SDS011;12319;49.204;8.116;2023-03-20T06:13:23;5.33;;;2.20;;
24163;SDS011;12319;49.204;8.116;2023-03-20T06:15:48;5.45;;;2.50;;
24163;SDS011;12319;49.204;8.116;2023-03-20T06:18:14;6.20;;;2.75;;
24163;SDS011;12319;49.204;8.116;2023-03-20T06:20:40;5.57;;;2.85;;
24163;SDS011;12319;49.204;8.116;2023-03-20T06:23:05;6.88;;;3.10;;
24163;SDS011;12319;49.204;8.116;2023-03-20T06:25:31;6.37;;;3.10;;
24163;SDS011;12319;49.204;8.116;2023-03-20T06:27:57;5.72;;;2.78;;
24163;SDS011;12319;49.204;8.116;2023-03-20T06:30:22;6.73;;;2.97;;
24163;SDS011;12319;49.204;8.116;2023-03-20T06:32:48;6.23;;;2.93;;
24163;SDS011;12319;49.204;8.116;2023-03-20T06:35:13;7.22;;;3.13;;
24163;SDS011;12319;49.204;8.116;2023-03-20T06:37:39;7.33;;;3.00;;
24163;SDS011;12319;49.204;8.116;2023-03-20T06:40:05;5.82;;;2.65;;
24163;SDS011;12319;49.204;8.116;2023-03-20T06:42:31;6.95;;;2.95;;
24163;SDS011;12319;49.204;8.116;2023-03-20T06:44:56;6.70;;;2.80;;
24163;SDS011;12319;49.204;8.116;2023-03-20T06:47:22;5.57;;;2.57;;
24163;SDS011;12319;49.204;8.116;2023-03-20T06:49:48;5.90;;;3.00;;
24163;SDS011;12319;49.204;8.116;2023-03-20T06:52:14;5.73;;;2.50;;
24163;SDS011;12319;49.204;8.116;2023-03-20T06:54:41;6.15;;;2.92;;
24163;SDS011;12319;49.204;8.116;2023-03-20T06:57:07;7.30;;;3.28;;
24163;SDS011;12319;49.204;8.116;2023-03-20T06:59:33;6.20;;;2.72;;
24163;SDS011;12319;49.204;8.116;2023-03-20T07:01:58;6.13;;;2.40;;
24163;SDS011;12319;49.204;8.116;2023-03-20T07:04:24;6.32;;;2.78;;
24163;SDS011;12319;49.204;8.116;2023-03-20T07:06:50;6.07;;;3.00;;
24163;SDS011;12319;49.204;8.116;2023-03-20T07:09:15;6.50;;;2.90;;
24163;SDS011;12319;49.204;8.116;2023-03-20T07:11:41;5.40;;;2.43;;
24163;SDS011;12319;49.204;8.116;2023-03-20T07:14:07;6.45;;;2.67;;
24163;SDS011;12319;49.204;8.116;2023-03-20T07:16:33;6.20;;;2.73;;
24163;SDS011;12319;49.204;8.116;2023-03-20T07:18:58;6.35;;;2.63;;
24163;SDS011;12319;49.204;8.116;2023-03-20T07:21:24;6.55;;;3.20;;
24163;SDS011;12319;49.204;8.116;2023-03-20T07:23:50;7.88;;;3.42;;
24163;SDS011;12319;49.204;8.116;2023-03-20T07:26:16;6.25;;;3.08;;
24163;SDS011;12319;49.204;8.116;2023-03-20T07:28:42;6.57;;;3.03;;
24163;SDS011;12319;49.204;8.116;2023-03-20T07:31:08;7.23;;;3.30;;
24163;SDS011;12319;49.204;8.116;2023-03-20T07:33:43;7.55;;;3.58;;
24163;SDS011;12319;49.204;8.116;2023-03-20T07:36:09;6.47;;;2.93;;
24163;SDS011;12319;49.204;8.116;2023-03-20T07:38:34;5.88;;;2.83;;
24163;SDS011;12319;49.204;8.116;2023-03-20T07:41:00;7.00;;;3.10;;
24163;SDS011;12319;49.204;8.116;2023-03-20T07:43:26;6.75;;;2.70;;
24163;SDS011;12319;49.204;8.116;2023-03-20T07:45:52;6.33;;;2.90;;
24163;SDS011;12319;49.204;8.116;2023-03-20T07:48:17;7.47;;;2.93;;
24163;SDS011;12319;49.204;8.116;2023-03-20T07:50:43;6.30;;;2.60;;
24163;SDS011;12319;49.204;8.116;2023-03-20T07:53:08;6.53;;;3.00;;
24163;SDS011;12319;49.204;8.116;2023-03-20T07:55:34;6.07;;;2.90;;
24163;SDS011;12319;49.204;8.116;2023-03-20T07:58:00;5.63;;;2.63;;
24163;SDS011;12319;49.204;8.116;2023-03-20T08:00:25;5.97;;;2.80;;
24163;SDS011;12319;49.204;8.116;2023-03-20T08:02:51;5.60;;;2.67;;
24163;SDS011;12319;49.204;8.116;2023-03-20T08:05:16;6.93;;;2.90;;
24163;SDS011;12319;49.204;8.116;2023-03-20T08:07:42;6.57;;;2.77;;
24163;SDS011;12319;49.204;8.116;2023-03-20T08:10:09;6.60;;;2.53;;
24163;SDS011;12319;49.204;8.116;2023-03-20T08:12:35;5.18;;;2.53;;
24163;SDS011;12319;49.204;8.116;2023-03-20T08:15:00;6.37;;;2.73;;
24163;SDS011;12319;49.204;8.116;2023-03-20T08:17:26;5.03;;;2.33;;
24163;SDS011;12319;49.204;8.116;2023-03-20T08:19:51;6.77;;;2.83;;
24163;SDS011;12319;49.204;8.116;2023-03-20T08:22:17;6.33;;;2.80;;
24163;SDS011;12319;49.204;8.116;2023-03-20T08:24:42;5.73;;;2.60;;
24163;SDS011;12319;49.204;8.116;2023-03-20T08:27:08;7.85;;;3.78;;
24163;SDS011;12319;49.204;8.116;2023-03-20T08:29:34;7.77;;;3.23;;
24163;SDS011;12319;49.204;8.116;2023-03-20T08:31:59;5.95;;;2.53;;
24163;SDS011;12319;49.204;8.116;2023-03-20T08:34:25;5.63;;;2.60;;
24163;SDS011;12319;49.204;8.116;2023-03-20T08:36:51;5.28;;;2.55;;
24163;SDS011;12319;49.204;8.116;2023-03-20T08:39:17;6.17;;;2.80;;
24163;SDS011;12319;49.204;8.116;2023-03-20T08:41:42;5.47;;;2.50;;
24163;SDS011;12319;49.204;8.116;2023-03-20T08:44:09;5.70;;;2.47;;
24163;SDS011;12319;49.204;8.116;2023-03-20T08:46:35;5.85;;;2.85;;
24163;SDS011;12319;49.204;8.116;2023-03-20T08:49:01;5.23;;;2.40;;
24163;SDS011;12319;49.204;8.116;2023-03-20T08:51:29;6.60;;;2.70;;
24163;SDS011;12319;49.204;8.116;2023-03-20T08:53:55;6.20;;;2.93;;
24163;SDS011;12319;49.204;8.116;2023-03-20T08:56:20;5.63;;;2.33;;
24163;SDS011;12319;49.204;8.116;2023-03-20T08:58:46;6.18;;;2.97;;
24163;SDS011;12319;49.204;8.116;2023-03-20T09:01:12;5.03;;;2.60;;
24163;SDS011;12319;49.204;8.116;2023-03-20T09:03:39;6.70;;;2.80;;
24163;SDS011;12319;49.204;8.116;2023-03-20T09:06:05;6.28;;;2.58;;
24163;SDS011;12319;49.204;8.116;2023-03-20T09:08:33;5.03;;;2.30;;
24163;SDS011;12319;49.204;8.116;2023-03-20T09:10:59;5.75;;;2.67;;
24163;SDS011;12319;49.204;8.116;2023-03-20T09:13:25;4.80;;;2.30;;
24163;SDS011;12319;49.204;8.116;2023-03-20T09:15:51;5.33;;;2.30;;
24163;SDS011;12319;49.204;8.116;2023-03-20T09:18:18;6.03;;;2.45;;
24163;SDS011;12319;49.204;8.116;2023-03-20T09:20:45;5.63;;;2.30;;
24163;SDS011;12319;49.204;8.116;2023-03-20T09:23:11;5.18;;;2.28;;
24163;SDS011;12319;49.204;8.116;2023-03-20T09:25:37;4.60;;;2.10;;
24163;SDS011;12319;49.204;8.116;2023-03-20T09:28:02;4.50;;;2.13;;
24163;SDS011;12319;49.204;8.116;2023-03-20T09:30:28;4.40;;;2.20;;
24163;SDS011;12319;49.204;8.116;2023-03-20T09:32:53;5.47;;;2.37;;
24163;SDS011;12319;49.204;8.116;2023-03-20T09:35:19;4.72;;;2.28;;
24163;SDS011;12319;49.204;8.116;2023-03-20T09:37:45;6.50;;;3.00;;
24163;SDS011;12319;49.204;8.116;2023-03-20T09:40:21;5.75;;;2.78;;
24163;SDS011;12319;49.204;8.116;2023-03-20T09:48:33;7.28;;;2.30;;
24163;SDS011;12319;49.204;8.116;2023-03-20T09:54:20;5.53;;;2.83;;
24163;SDS011;12319;49.204;8.116;2023-03-20T09:56:57;5.93;;;2.70;;
24163;SDS011;12319;49.204;8.116;2023-03-20T09:59:24;6.10;;;3.05;;
24163;SDS011;12319;49.204;8.116;2023-03-20T10:01:52;5.72;;;2.38;;
24163;SDS011;12319;49.204;8.116;2023-03-20T10:04:18;5.43;;;2.90;;
24163;SDS011;12319;49.204;8.116;2023-03-20T10:06:44;5.20;;;2.28;;
24163;SDS011;12319;49.204;8.116;2023-03-20T10:09:20;4.87;;;1.90;;
24163;SDS011;12319;49.204;8.116;2023-03-20T10:20:33;4.75;;;2.00;;
24163;SDS011;12319;49.204;8.116;2023-03-20T10:23:15;4.67;;;2.20;;
24163;SDS011;12319;49.204;8.116;2023-03-20T10:25:57;5.07;;;2.20;;
24163;SDS011;12319;49.204;8.116;2023-03-20T10:28:43;4.45;;;2.03;;
24163;SDS011;12319;49.204;8.116;2023-03-20T10:34:02;5.40;;;2.25;;
24163;SDS011;12319;49.204;8.116;2023-03-20T10:42:18;4.60;;;1.90;;
24163;SDS011;12319;49.204;8.116;2023-03-20T10:44:49;4.30;;;1.88;;
24163;SDS011;12319;49.204;8.116;2023-03-20T10:47:20;4.15;;;2.00;;
24163;SDS011;12319;49.204;8.116;2023-03-20T10:49:53;4.27;;;1.90;;
24163;SDS011;12319;49.204;8.116;2023-03-20T10:52:24;3.88;;;1.80;;
24163;SDS011;12319;49.204;8.116;2023-03-20T10:55:09;3.85;;;1.80;;
24163;SDS011;12319;49.204;8.116;2023-03-20T10:57:58;4.10;;;1.92;;
24163;SDS011;12319;49.204;8.116;2023-03-20T11:00:29;3.70;;;1.58;;
24163;SDS011;12319;49.204;8.116;2023-03-20T11:02:55;3.97;;;1.60;;
24163;SDS011;12319;49.204;8.116;2023-03-20T11:05:33;3.80;;;1.42;;
24163;SDS011;12319;49.204;8.116;2023-03-20T11:08:11;3.05;;;1.48;;
24163;SDS011;12319;49.204;8.116;2023-03-20T11:10:38;3.40;;;1.70;;
24163;SDS011;12319;49.204;8.116;2023-03-20T11:13:21;3.58;;;1.60;;
24163;SDS011;12319;49.204;8.116;2023-03-20T11:15:54;4.05;;;1.55;;
24163;SDS011;12319;49.204;8.116;2023-03-20T11:18:23;3.53;;;1.58;;
24163;SDS011;12319;49.204;8.116;2023-03-20T11:20:50;3.67;;;1.60;;
24163;SDS011;12319;49.204;8.116;2023-03-20T11:23:19;4.05;;;1.70;;
24163;SDS011;12319;49.204;8.116;2023-03-20T11:25:51;2.72;;;1.20;;
24163;SDS011;12319;49.204;8.116;2023-03-20T11:28:38;4.90;;;1.60;;
24163;SDS011;12319;49.204;8.116;2023-03-20T11:31:24;3.50;;;1.50;;
24163;SDS011;12319;49.204;8.116;2023-03-20T11:34:19;3.23;;;1.33;;
24163;SDS011;12319;49.204;8.116;2023-03-20T11:36:57;3.70;;;1.65;;
24163;SDS011;12319;49.204;8.116;2023-03-20T11:39:25;3.40;;;1.52;;
24163;SDS011;12319;49.204;8.116;2023-03-20T11:41:55;4.22;;;1.40;;
24163;SDS011;12319;49.204;8.116;2023-03-20T11:49:27;4.55;;;1.80;;
24163;SDS011;12319;49.204;8.116;2023-03-20T11:52:10;3.42;;;1.48;;
24163;SDS011;12319;49.204;8.116;2023-03-20T11:54:38;2.67;;;1.48;;
24163;SDS011;12319;49.204;8.116;2023-03-20T11:57:25;3.55;;;1.60;;
24163;SDS011;12319;49.204;8.116;2023-03-20T11:59:55;3.07;;;1.43;;
24163;SDS011;12319;49.204;8.116;2023-03-20T12:02:22;3.78;;;1.50;;
24163;SDS011;12319;49.204;8.116;2023-03-20T12:04:48;3.03;;;1.40;;
24163;SDS011;12319;49.204;8.116;2023-03-20T12:10:09;3.10;;;1.40;;
24163;SDS011;12319;49.204;8.116;2023-03-20T12:12:47;3.38;;;1.50;;
24163;SDS011;12319;49.204;8.116;2023-03-20T12:17:58;3.42;;;1.50;;
24163;SDS011;12319;49.204;8.116;2023-03-20T12:20:40;2.83;;;1.40;;
24163;SDS011;12319;49.204;8.116;2023-03-20T12:26:41;3.45;;;1.40;;
24163;SDS011;12319;49.204;8.116;2023-03-20T12:29:17;2.80;;;1.60;;
24163;SDS011;12319;49.204;8.116;2023-03-20T12:31:51;3.65;;;1.77;;
24163;SDS011;12319;49.204;8.116;2023-03-20T12:36:54;3.30;;;1.38;;
24163;SDS011;12319;49.204;8.116;2023-03-20T12:39:27;3.38;;;1.70;;
24163;SDS011;12319;49.204;8.116;2023-03-20T12:47:31;3.88;;;1.60;;
24163;SDS011;12319;49.204;8.116;2023-03-20T12:53:07;2.63;;;1.45;;
24163;SDS011;12319;49.204;8.116;2023-03-20T12:58:40;3.13;;;1.33;;
24163;SDS011;12319;49.204;8.116;2023-03-20T13:04:09;2.50;;;1.30;;
24163;SDS011;12319;49.204;8.116;2023-03-20T13:06:55;2.80;;;1.50;;
24163;SDS011;12319;49.204;8.116;2023-03-20T13:09:39;3.10;;;1.40;;
24163;SDS011;12319;49.204;8.116;2023-03-20T13:15:26;3.00;;;1.30;;
24163;SDS011;12319;49.204;8.116;2023-03-20T13:20:47;2.05;;;1.20;;
24163;SDS011;12319;49.204;8.116;2023-03-20T13:34:15;3.97;;;1.80;;
24163;SDS011;12319;49.204;8.116;2023-03-20T13:37:02;3.15;;;1.55;;
24163;SDS011;12319;49.204;8.116;2023-03-20T13:39:58;3.33;;;1.50;;
24163;SDS011;12319;49.204;8.116;2023-03-20T13:45:40;3.20;;;1.50;;
24163;SDS011;12319;49.204;8.116;2023-03-20T13:48:17;4.28;;;1.63;;
24163;SDS011;12319;49.204;8.116;2023-03-20T13:51:09;3.25;;;1.48;;
24163;SDS011;12319;49.204;8.116;2023-03-20T13:56:53;3.08;;;1.45;;
24163;SDS011;12319;49.204;8.116;2023-03-20T14:04:55;3.88;;;1.50;;
24163;SDS011;12319;49.204;8.116;2023-03-20T14:07:43;2.50;;;1.30;;
24163;SDS011;12319;49.204;8.116;2023-03-20T14:12:49;3.05;;;1.65;;
24163;SDS011;12319;49.204;8.116;2023-03-20T14:15:34;2.35;;;1.30;;
24163;SDS011;12319;49.204;8.116;2023-03-20T14:18:03;2.80;;;1.42;;
24163;SDS011;12319;49.204;8.116;2023-03-20T14:20:34;2.85;;;1.42;;
24163;SDS011;12319;49.204;8.116;2023-03-20T14:23:02;3.03;;;1.30;;
24163;SDS011;12319;49.204;8.116;2023-03-20T14:25:32;3.55;;;1.40;;
24163;SDS011;12319;49.204;8.116;2023-03-20T14:28:08;4.28;;;1.80;;
24163;SDS011;12319;49.204;8.116;2023-03-20T14:30:49;3.63;;;1.95;;
24163;SDS011;12319;49.204;8.116;2023-03-20T14:35:45;3.23;;;1.20;;
24163;SDS011;12319;49.204;8.116;2023-03-20T14:38:34;2.53;;;1.48;;
24163;SDS011;12319;49.204;8.116;2023-03-20T14:41:19;3.10;;;1.45;;
24163;SDS011;12319;49.204;8.116;2023-03-20T14:54:54;2.30;;;1.30;;
24163;SDS011;12319;49.204;8.116;2023-03-20T14:57:29;2.13;;;1.20;;
24163;SDS011;12319;49.204;8.116;2023-03-20T14:59:57;2.88;;;1.40;;
24163;SDS011;12319;49.204;8.116;2023-03-20T15:02:27;2.38;;;1.25;;
24163;SDS011;12319;49.204;8.116;2023-03-20T15:04:58;2.55;;;1.30;;
24163;SDS011;12319;49.204;8.116;2023-03-20T15:07:27;3.47;;;1.40;;
24163;SDS011;12319;49.204;8.116;2023-03-20T15:10:00;2.47;;;1.30;;
24163;SDS011;12319;49.204;8.116;2023-03-20T15:12:27;2.30;;;1.33;;
24163;SDS011;12319;49.204;8.116;2023-03-20T15:14:59;2.50;;;1.38;;
24163;SDS011;12319;49.204;8.116;2023-03-20T15:17:27;2.70;;;1.40;;
24163;SDS011;12319;49.204;8.116;2023-03-20T15:20:06;2.30;;;1.30;;
24163;SDS011;12319;49.204;8.116;2023-03-20T15:22:47;2.55;;;1.35;;
24163;SDS011;12319;49.204;8.116;2023-03-20T15:25:22;2.35;;;1.30;;
24163;SDS011;12319;49.204;8.116;2023-03-20T15:27:51;3.17;;;1.50;;
24163;SDS011;12319;49.204;8.116;2023-03-20T15:30:18;2.72;;;1.40;;
24163;SDS011;12319;49.204;8.116;2023-03-20T15:32:46;2.97;;;1.30;;
24163;SDS011;12319;49.204;8.116;2023-03-20T15:35:18;2.50;;;1.38;;
24163;SDS011;12319;49.204;8.116;2023-03-20T15:37:47;3.97;;;1.60;;
24163;SDS011;12319;49.204;8.116;2023-03-20T15:40:22;2.63;;;1.35;;
24163;SDS011;12319;49.204;8.116;2023-03-20T15:42:55;3.25;;;1.50;;
24163;SDS011;12319;49.204;8.116;2023-03-20T15:45:24;4.35;;;1.67;;
24163;SDS011;12319;49.204;8.116;2023-03-20T15:48:07;4.00;;;1.45;;
24163;SDS011;12319;49.204;8.116;2023-03-20T15:50:38;2.88;;;1.40;;
24163;SDS011;12319;49.204;8.116;2023-03-20T15:53:05;4.57;;;1.63;;
24163;SDS011;12319;49.204;8.116;2023-03-20T15:55:35;3.65;;;1.60;;
24163;SDS011;12319;49.204;8.116;2023-03-20T15:58:02;3.45;;;1.30;;
24163;SDS011;12319;49.204;8.116;2023-03-20T16:00:33;2.88;;;1.40;;
24163;SDS011;12319;49.204;8.116;2023-03-20T16:03:04;2.63;;;1.33;;
24163;SDS011;12319;49.204;8.116;2023-03-20T16:05:32;3.38;;;1.42;;
24163;SDS011;12319;49.204;8.116;2023-03-20T16:08:13;2.83;;;1.50;;
24163;SDS011;12319;49.204;8.116;2023-03-20T16:10:43;2.85;;;1.38;;
24163;SDS011;12319;49.204;8.116;2023-03-20T16:13:10;2.20;;;1.30;;
24163;SDS011;12319;49.204;8.116;2023-03-20T16:15:38;2.92;;;1.40;;
24163;SDS011;12319;49.204;8.116;2023-03-20T16:18:04;2.22;;;1.30;;
24163;SDS011;12319;49.204;8.116;2023-03-20T16:20:41;1.80;;;1.15;;
24163;SDS011;12319;49.204;8.116;2023-03-20T16:23:19;2.95;;;1.50;;
24163;SDS011;12319;49.204;8.116;2023-03-20T16:25:55;2.72;;;1.40;;
24163;SDS011;12319;49.204;8.116;2023-03-20T16:28:24;3.05;;;1.40;;
24163;SDS011;12319;49.204;8.116;2023-03-20T16:30:51;3.03;;;1.35;;
24163;SDS011;12319;49.204;8.116;2023-03-20T16:33:17;3.58;;;1.52;;
24163;SDS011;12319;49.204;8.116;2023-03-20T16:35:47;3.33;;;1.60;;
24163;SDS011;12319;49.204;8.116;2023-03-20T16:40:53;3.08;;;1.38;;
24163;SDS011;12319;49.204;8.116;2023-03-20T16:43:24;2.60;;;1.40;;
24163;SDS011;12319;49.204;8.116;2023-03-20T16:45:55;2.47;;;1.40;;
24163;SDS011;12319;49.204;8.116;2023-03-20T16:50:47;2.93;;;1.43;;
24163;SDS011;12319;49.204;8.116;2023-03-20T16:53:21;3.03;;;1.40;;
24163;SDS011;12319;49.204;8.116;2023-03-20T16:55:48;2.90;;;1.50;;
24163;SDS011;12319;49.204;8.116;2023-03-20T16:58:48;3.08;;;1.30;;
24163;SDS011;12319;49.204;8.116;2023-03-20T17:01:13;1.77;;;1.17;;
24163;SDS011;12319;49.204;8.116;2023-03-20T17:08:45;2.83;;;1.20;;
24163;SDS011;12319;49.204;8.116;2023-03-20T17:11:15;3.13;;;1.52;;
24163;SDS011;12319;49.204;8.116;2023-03-20T17:13:58;2.15;;;1.20;;
24163;SDS011;12319;49.204;8.116;2023-03-20T17:16:24;2.10;;;1.27;;
24163;SDS011;12319;49.204;8.116;2023-03-20T17:19:00;2.08;;;1.30;;
24163;SDS011;12319;49.204;8.116;2023-03-20T17:21:28;2.53;;;1.40;;
24163;SDS011;12319;49.204;8.116;2023-03-20T17:23:54;2.88;;;1.30;;
24163;SDS011;12319;49.204;8.116;2023-03-20T17:26:19;2.50;;;1.27;;
24163;SDS011;12319;49.204;8.116;2023-03-20T17:28:45;2.63;;;1.45;;
24163;SDS011;12319;49.204;8.116;2023-03-20T17:31:15;3.72;;;1.42;;
24163;SDS011;12319;49.204;8.116;2023-03-20T17:33:42;6.72;;;1.63;;
24163;SDS011;12319;49.204;8.116;2023-03-20T17:36:11;2.85;;;1.63;;
24163;SDS011;12319;49.204;8.116;2023-03-20T17:38:47;2.67;;;1.45;;